sensor_id;sensor_type;location;lat;lon;timestamp;temperature;humidity
13835;DHT22;6988;52.614;13.500;2023-03-19T00:02:54;7.90;99.90
13835;DHT22;6988;52.614;13.500;2023-03-19T00:07:46;7.90;99.90
13835;DHT22;6988;52.614;13.500;2023-03-19T00:12:38;8.00;99.90
13835;DHT22;6988;52.614;13.500;2023-03-19T00:17:30;7.90;99.90
13835;DHT22;6988;52.614;13.500;2023-03-19T00:22:24;7.90;99.90
13835;DHT22;6988;52.614;13.500;2023-03-19T00:27:16;7.90;99.90
13835;DHT22;6988;52.614;13.500;2023-03-19T00:32:08;7.70;99.90
13835;DHT22;6988;52.614;13.500;2023-03-19T00:37:00;7.70;99.90
13835;DHT22;6988;52.614;13.500;2023-03-19T00:41:53;7.60;99.90
13835;DHT22;6988;52.614;13.500;2023-03-19T00:46:45;7.60;99.90
13835;DHT22;6988;52.614;13.500;2023-03-19T00:51:37;7.50;99.90
13835;DHT22;6988;52.614;13.500;2023-03-19T00:56:33;7.50;99.90
13835;DHT22;6988;52.614;13.500;2023-03-19T01:01:26;7.40;99.90
13835;DHT22;6988;52.614;13.500;2023-03-19T01:06:18;7.30;99.90
13835;DHT22;6988;52.614;13.500;2023-03-19T01:11:26;7.30;99.90
13835;DHT22;6988;52.614;13.500;2023-03-19T01:16:19;7.30;99.90
13835;DHT22;6988;52.614;13.500;2023-03-19T01:21:12;7.20;99.90
13835;DHT22;6988;52.614;13.500;2023-03-19T01:26:10;7.20;99.90
13835;DHT22;6988;52.614;13.500;2023-03-19T01:31:05;7.10;99.90
13835;DHT22;6988;52.614;13.500;2023-03-19T01:36:15;7.00;99.90
13835;DHT22;6988;52.614;13.500;2023-03-19T01:41:25;7.00;99.90
13835;DHT22;6988;52.614;13.500;2023-03-19T01:46:26;6.90;99.90
13835;DHT22;6988;52.614;13.500;2023-03-19T01:51:42;6.90;99.90
13835;DHT22;6988;52.614;13.500;2023-03-19T01:57:03;6.80;99.90
13835;DHT22;6988;52.614;13.500;2023-03-19T02:02:27;6.80;99.90
13835;DHT22;6988;52.614;13.500;2023-03-19T02:07:24;6.70;99.90
13835;DHT22;6988;52.614;13.500;2023-03-19T02:12:17;6.70;99.90
13835;DHT22;6988;52.614;13.500;2023-03-19T02:17:10;6.70;99.90
13835;DHT22;6988;52.614;13.500;2023-03-19T02:22:02;6.60;99.90
13835;DHT22;6988;52.614;13.500;2023-03-19T02:26:57;6.70;99.90
13835;DHT22;6988;52.614;13.500;2023-03-19T02:31:49;6.70;99.90
13835;DHT22;6988;52.614;13.500;2023-03-19T02:36:44;6.60;99.90
13835;DHT22;6988;52.614;13.500;2023-03-19T02:41:40;6.50;99.90
13835;DHT22;6988;52.614;13.500;2023-03-19T02:46:35;6.40;99.90
13835;DHT22;6988;52.614;13.500;2023-03-19T02:51:27;6.30;99.90
13835;DHT22;6988;52.614;13.500;2023-03-19T02:56:20;6.30;99.90
13835;DHT22;6988;52.614;13.500;2023-03-19T03:01:12;6.20;99.90
13835;DHT22;6988;52.614;13.500;2023-03-19T03:06:05;6.30;99.90
13835;DHT22;6988;52.614;13.500;2023-03-19T03:10:57;6.30;99.90
13835;DHT22;6988;52.614;13.500;2023-03-19T03:15:49;6.30;99.90
13835;DHT22;6988;52.614;13.500;2023-03-19T03:20:43;6.20;99.90
13835;DHT22;6988;52.614;13.500;2023-03-19T03:25:37;6.30;99.90
13835;DHT22;6988;52.614;13.500;2023-03-19T03:30:30;6.30;99.90
13835;DHT22;6988;52.614;13.500;2023-03-19T03:35:22;6.30;99.90
13835;DHT22;6988;52.614;13.500;2023-03-19T03:40:14;6.30;99.90
13835;DHT22;6988;52.614;13.500;2023-03-19T03:45:10;6.30;99.90
13835;DHT22;6988;52.614;13.500;2023-03-19T03:50:05;6.40;99.90
13835;DHT22;6988;52.614;13.500;2023-03-19T03:55:01;6.40;99.90
13835;DHT22;6988;52.614;13.500;2023-03-19T03:59:53;6.50;99.90
13835;DHT22;6988;52.614;13.500;2023-03-19T04:04:47;6.50;99.90
13835;DHT22;6988;52.614;13.500;2023-03-19T04:09:39;6.50;99.90
13835;DHT22;6988;52.614;13.500;2023-03-19T04:14:32;6.60;99.90
13835;DHT22;6988;52.614;13.500;2023-03-19T04:19:24;6.60;99.90
13835;DHT22;6988;52.614;13.500;2023-03-19T04:24:18;6.60;99.90
13835;DHT22;6988;52.614;13.500;2023-03-19T04:29:10;6.60;99.90
13835;DHT22;6988;52.614;13.500;2023-03-19T04:34:02;6.60;99.90
13835;DHT22;6988;52.614;13.500;2023-03-19T04:38:55;6.60;99.90
13835;DHT22;6988;52.614;13.500;2023-03-19T04:43:48;6.60;99.90
13835;DHT22;6988;52.614;13.500;2023-03-19T04:48:41;6.60;99.90
13835;DHT22;6988;52.614;13.500;2023-03-19T04:53:34;6.60;99.90
13835;DHT22;6988;52.614;13.500;2023-03-19T04:58:27;6.60;99.90
13835;DHT22;6988;52.614;13.500;2023-03-19T05:03:25;6.70;99.90
13835;DHT22;6988;52.614;13.500;2023-03-19T05:08:17;6.80;99.90
13835;DHT22;6988;52.614;13.500;2023-03-19T05:13:09;6.80;99.90
13835;DHT22;6988;52.614;13.500;2023-03-19T05:18:06;6.80;99.90
13835;DHT22;6988;52.614;13.500;2023-03-19T05:23:04;6.80;99.90
13835;DHT22;6988;52.614;13.500;2023-03-19T05:28:04;6.90;99.90
13835;DHT22;6988;52.614;13.500;2023-03-19T05:32:57;6.90;99.90
13835;DHT22;6988;52.614;13.500;2023-03-19T05:37:57;6.90;99.90
13835;DHT22;6988;52.614;13.500;2023-03-19T05:42:51;7.00;99.90
13835;DHT22;6988;52.614;13.500;2023-03-19T05:47:47;7.00;99.90
13835;DHT22;6988;52.614;13.500;2023-03-19T05:52:42;7.10;99.90
13835;DHT22;6988;52.614;13.500;2023-03-19T05:57:35;7.30;99.90
13835;DHT22;6988;52.614;13.500;2023-03-19T06:02:34;7.30;99.90
13835;DHT22;6988;52.614;13.500;2023-03-19T06:07:41;7.20;99.90
13835;DHT22;6988;52.614;13.500;2023-03-19T06:12:40;7.30;99.90
13835;DHT22;6988;52.614;13.500;2023-03-19T06:18:00;7.60;99.90
13835;DHT22;6988;52.614;13.500;2023-03-19T06:22:52;7.90;99.90
13835;DHT22;6988;52.614;13.500;2023-03-19T06:27:46;8.10;99.90
13835;DHT22;6988;52.614;13.500;2023-03-19T06:32:56;8.30;99.90
13835;DHT22;6988;52.614;13.500;2023-03-19T06:37:50;8.50;99.90
13835;DHT22;6988;52.614;13.500;2023-03-19T06:42:43;8.60;99.90
13835;DHT22;6988;52.614;13.500;2023-03-19T06:47:39;8.70;99.90
13835;DHT22;6988;52.614;13.500;2023-03-19T06:52:32;8.80;99.90
13835;DHT22;6988;52.614;13.500;2023-03-19T06:57:26;8.90;99.90
13835;DHT22;6988;52.614;13.500;2023-03-19T07:02:18;9.20;99.90
13835;DHT22;6988;52.614;13.500;2023-03-19T07:07:10;9.40;99.90
13835;DHT22;6988;52.614;13.500;2023-03-19T07:12:02;9.60;99.90
13835;DHT22;6988;52.614;13.500;2023-03-19T07:16:56;9.70;99.90
13835;DHT22;6988;52.614;13.500;2023-03-19T07:21:48;9.60;99.90
13835;DHT22;6988;52.614;13.500;2023-03-19T07:26:40;9.50;99.90
13835;DHT22;6988;52.614;13.500;2023-03-19T07:31:33;9.60;99.90
13835;DHT22;6988;52.614;13.500;2023-03-19T07:36:26;9.50;99.90
13835;DHT22;6988;52.614;13.500;2023-03-19T07:41:18;9.50;99.90
13835;DHT22;6988;52.614;13.500;2023-03-19T07:46:10;9.40;99.90
13835;DHT22;6988;52.614;13.500;2023-03-19T07:51:03;9.30;99.90
13835;DHT22;6988;52.614;13.500;2023-03-19T07:55:57;9.30;99.90
13835;DHT22;6988;52.614;13.500;2023-03-19T08:00:49;9.20;99.90
13835;DHT22;6988;52.614;13.500;2023-03-19T08:05:41;9.10;99.90
13835;DHT22;6988;52.614;13.500;2023-03-19T08:10:33;9.00;99.90
13835;DHT22;6988;52.614;13.500;2023-03-19T08:15:26;9.00;99.90
13835;DHT22;6988;52.614;13.500;2023-03-19T08:20:18;9.10;99.90
13835;DHT22;6988;52.614;13.500;2023-03-19T08:25:10;9.40;99.90
13835;DHT22;6988;52.614;13.500;2023-03-19T08:30:03;9.40;99.90
13835;DHT22;6988;52.614;13.500;2023-03-19T08:34:59;9.40;99.90
13835;DHT22;6988;52.614;13.500;2023-03-19T08:39:51;9.40;99.90
13835;DHT22;6988;52.614;13.500;2023-03-19T08:44:43;9.50;99.90
13835;DHT22;6988;52.614;13.500;2023-03-19T08:49:35;9.40;99.90
13835;DHT22;6988;52.614;13.500;2023-03-19T08:54:28;9.60;99.90
13835;DHT22;6988;52.614;13.500;2023-03-19T08:59:21;9.60;99.90
13835;DHT22;6988;52.614;13.500;2023-03-19T09:04:13;9.50;99.90
13835;DHT22;6988;52.614;13.500;2023-03-19T09:09:05;9.60;99.90
13835;DHT22;6988;52.614;13.500;2023-03-19T09:13:58;9.40;99.90
13835;DHT22;6988;52.614;13.500;2023-03-19T09:18:50;9.20;99.90
13835;DHT22;6988;52.614;13.500;2023-03-19T09:23:42;9.30;99.90
13835;DHT22;6988;52.614;13.500;2023-03-19T09:28:34;9.10;99.90
13835;DHT22;6988;52.614;13.500;2023-03-19T09:33:32;9.10;99.90
13835;DHT22;6988;52.614;13.500;2023-03-19T09:38:23;9.20;99.90
13835;DHT22;6988;52.614;13.500;2023-03-19T09:43:38;9.30;99.90
13835;DHT22;6988;52.614;13.500;2023-03-19T09:48:47;9.20;99.90
13835;DHT22;6988;52.614;13.500;2023-03-19T09:53:49;9.30;99.90
13835;DHT22;6988;52.614;13.500;2023-03-19T09:58:47;9.30;99.90
13835;DHT22;6988;52.614;13.500;2023-03-19T10:03:44;9.20;99.90
13835;DHT22;6988;52.614;13.500;2023-03-19T10:08:52;9.30;99.90
13835;DHT22;6988;52.614;13.500;2023-03-19T10:14:01;9.50;99.90
13835;DHT22;6988;52.614;13.500;2023-03-19T10:19:04;9.90;99.90
13835;DHT22;6988;52.614;13.500;2023-03-19T10:23:59;10.20;99.90
13835;DHT22;6988;52.614;13.500;2023-03-19T10:28:58;10.60;99.90
13835;DHT22;6988;52.614;13.500;2023-03-19T10:34:06;10.80;99.90
13835;DHT22;6988;52.614;13.500;2023-03-19T10:39:14;11.00;99.90
13835;DHT22;6988;52.614;13.500;2023-03-19T10:44:12;11.20;99.90
13835;DHT22;6988;52.614;13.500;2023-03-19T10:49:20;11.30;99.90
13835;DHT22;6988;52.614;13.500;2023-03-19T10:54:19;11.40;99.90
13835;DHT22;6988;52.614;13.500;2023-03-19T10:59:22;11.50;99.90
13835;DHT22;6988;52.614;13.500;2023-03-19T11:04:18;11.80;99.90
13835;DHT22;6988;52.614;13.500;2023-03-19T11:09:18;11.80;99.90
13835;DHT22;6988;52.614;13.500;2023-03-19T11:14:20;11.80;99.90
13835;DHT22;6988;52.614;13.500;2023-03-19T11:19:19;12.00;99.90
13835;DHT22;6988;52.614;13.500;2023-03-19T11:24:15;12.20;99.90
13835;DHT22;6988;52.614;13.500;2023-03-19T11:29:08;12.10;99.90
13835;DHT22;6988;52.614;13.500;2023-03-19T11:34:13;12.00;99.90
13835;DHT22;6988;52.614;13.500;2023-03-19T11:39:20;12.10;99.90
13835;DHT22;6988;52.614;13.500;2023-03-19T11:44:21;12.10;99.90
13835;DHT22;6988;52.614;13.500;2023-03-19T11:49:41;12.10;99.90
13835;DHT22;6988;52.614;13.500;2023-03-19T11:55:00;12.20;99.90
13835;DHT22;6988;52.614;13.500;2023-03-19T12:00:23;12.20;99.90
13835;DHT22;6988;52.614;13.500;2023-03-19T12:05:24;12.30;99.90
13835;DHT22;6988;52.614;13.500;2023-03-19T12:10:34;12.40;99.90
13835;DHT22;6988;52.614;13.500;2023-03-19T12:15:37;12.50;99.90
13835;DHT22;6988;52.614;13.500;2023-03-19T12:20:51;12.50;99.90
13835;DHT22;6988;52.614;13.500;2023-03-19T12:25:59;12.50;99.90
13835;DHT22;6988;52.614;13.500;2023-03-19T12:31:12;12.60;99.90
13835;DHT22;6988;52.614;13.500;2023-03-19T12:36:16;12.70;99.90
13835;DHT22;6988;52.614;13.500;2023-03-19T12:41:18;12.90;99.90
13835;DHT22;6988;52.614;13.500;2023-03-19T12:46:16;13.10;99.90
13835;DHT22;6988;52.614;13.500;2023-03-19T12:51:16;13.20;99.90
13835;DHT22;6988;52.614;13.500;2023-03-19T12:56:16;13.40;99.90
13835;DHT22;6988;52.614;13.500;2023-03-19T13:01:16;13.50;99.90
13835;DHT22;6988;52.614;13.500;2023-03-19T13:06:16;13.70;99.90
13835;DHT22;6988;52.614;13.500;2023-03-19T13:11:16;14.00;99.90
13835;DHT22;6988;52.614;13.500;2023-03-19T13:16:24;14.40;99.90
13835;DHT22;6988;52.614;13.500;2023-03-19T13:21:26;14.90;99.90
13835;DHT22;6988;52.614;13.500;2023-03-19T13:26:21;15.10;99.90
13835;DHT22;6988;52.614;13.500;2023-03-19T13:31:18;15.20;99.90
13835;DHT22;6988;52.614;13.500;2023-03-19T13:36:13;15.20;99.90
13835;DHT22;6988;52.614;13.500;2023-03-19T13:47:37;15.20;99.90
13835;DHT22;6988;52.614;13.500;2023-03-19T13:52:48;15.10;99.90
13835;DHT22;6988;52.614;13.500;2023-03-19T13:57:52;15.10;99.90
13835;DHT22;6988;52.614;13.500;2023-03-19T14:02:52;15.20;99.90
13835;DHT22;6988;52.614;13.500;2023-03-19T14:07:49;15.10;99.90
13835;DHT22;6988;52.614;13.500;2023-03-19T14:12:46;15.20;99.90
13835;DHT22;6988;52.614;13.500;2023-03-19T14:17:43;15.30;99.90
13835;DHT22;6988;52.614;13.500;2023-03-19T14:22:54;15.30;99.90
13835;DHT22;6988;52.614;13.500;2023-03-19T14:27:57;15.30;99.90
13835;DHT22;6988;52.614;13.500;2023-03-19T14:32:54;15.40;99.90
13835;DHT22;6988;52.614;13.500;2023-03-19T14:37:51;15.50;99.90
13835;DHT22;6988;52.614;13.500;2023-03-19T14:42:55;15.50;99.90
13835;DHT22;6988;52.614;13.500;2023-03-19T14:53:10;15.50;99.90
13835;DHT22;6988;52.614;13.500;2023-03-19T14:58:10;15.80;99.90
13835;DHT22;6988;52.614;13.500;2023-03-19T15:03:02;16.00;99.90
13835;DHT22;6988;52.614;13.500;2023-03-19T15:07:57;16.00;99.90
13835;DHT22;6988;52.614;13.500;2023-03-19T15:18:23;16.00;99.90
13835;DHT22;6988;52.614;13.500;2023-03-19T15:23:18;16.00;99.90
13835;DHT22;6988;52.614;13.500;2023-03-19T15:28:13;15.90;99.90
13835;DHT22;6988;52.614;13.500;2023-03-19T15:33:19;15.80;99.90
13835;DHT22;6988;52.614;13.500;2023-03-19T15:38:16;15.60;99.90
13835;DHT22;6988;52.614;13.500;2023-03-19T15:43:10;15.50;99.90
13835;DHT22;6988;52.614;13.500;2023-03-19T15:48:08;15.40;99.90
13835;DHT22;6988;52.614;13.500;2023-03-19T15:53:09;15.30;99.90
13835;DHT22;6988;52.614;13.500;2023-03-19T15:58:06;15.30;99.90
13835;DHT22;6988;52.614;13.500;2023-03-19T16:03:00;15.30;99.90
13835;DHT22;6988;52.614;13.500;2023-03-19T16:07:54;15.30;99.90
13835;DHT22;6988;52.614;13.500;2023-03-19T16:12:50;15.30;99.90
13835;DHT22;6988;52.614;13.500;2023-03-19T16:17:43;15.20;99.90
13835;DHT22;6988;52.614;13.500;2023-03-19T16:22:34;15.20;99.90
13835;DHT22;6988;52.614;13.500;2023-03-19T16:27:33;15.20;99.90
13835;DHT22;6988;52.614;13.500;2023-03-19T16:32:29;15.10;99.90
13835;DHT22;6988;52.614;13.500;2023-03-19T16:37:32;15.10;99.90
13835;DHT22;6988;52.614;13.500;2023-03-19T16:42:36;15.20;99.90
13835;DHT22;6988;52.614;13.500;2023-03-19T16:47:30;15.00;99.90
13835;DHT22;6988;52.614;13.500;2023-03-19T16:52:23;14.90;99.90
13835;DHT22;6988;52.614;13.500;2023-03-19T16:57:16;14.60;99.90
13835;DHT22;6988;52.614;13.500;2023-03-19T17:02:10;14.50;99.90
13835;DHT22;6988;52.614;13.500;2023-03-19T17:07:03;14.30;99.90
13835;DHT22;6988;52.614;13.500;2023-03-19T17:11:55;14.30;99.90
13835;DHT22;6988;52.614;13.500;2023-03-19T17:16:47;14.20;99.90
13835;DHT22;6988;52.614;13.500;2023-03-19T17:21:41;14.00;99.90
13835;DHT22;6988;52.614;13.500;2023-03-19T17:26:34;13.90;99.90
13835;DHT22;6988;52.614;13.500;2023-03-19T17:31:27;13.70;99.90
13835;DHT22;6988;52.614;13.500;2023-03-19T17:36:20;13.50;99.90
13835;DHT22;6988;52.614;13.500;2023-03-19T17:41:16;13.30;99.90
13835;DHT22;6988;52.614;13.500;2023-03-19T17:46:15;13.20;99.90
13835;DHT22;6988;52.614;13.500;2023-03-19T17:51:08;13.10;99.90
13835;DHT22;6988;52.614;13.500;2023-03-19T17:56:00;13.00;99.90
13835;DHT22;6988;52.614;13.500;2023-03-19T18:00:52;12.80;99.90
13835;DHT22;6988;52.614;13.500;2023-03-19T18:05:46;12.80;99.90
13835;DHT22;6988;52.614;13.500;2023-03-19T18:10:41;12.70;99.90
13835;DHT22;6988;52.614;13.500;2023-03-19T18:15:33;12.50;99.90
13835;DHT22;6988;52.614;13.500;2023-03-19T18:20:32;12.40;99.90
13835;DHT22;6988;52.614;13.500;2023-03-19T18:25:28;12.50;99.90
13835;DHT22;6988;52.614;13.500;2023-03-19T18:30:22;12.40;99.90
13835;DHT22;6988;52.614;13.500;2023-03-19T18:35:14;12.10;99.90
13835;DHT22;6988;52.614;13.500;2023-03-19T18:40:13;12.20;99.90
13835;DHT22;6988;52.614;13.500;2023-03-19T18:45:08;12.20;99.90
13835;DHT22;6988;52.614;13.500;2023-03-19T18:50:02;12.10;99.90
13835;DHT22;6988;52.614;13.500;2023-03-19T18:55:05;12.10;99.90
13835;DHT22;6988;52.614;13.500;2023-03-19T18:59:57;12.00;99.90
13835;DHT22;6988;52.614;13.500;2023-03-19T19:04:55;11.90;99.90
13835;DHT22;6988;52.614;13.500;2023-03-19T19:09:47;11.80;99.90
13835;DHT22;6988;52.614;13.500;2023-03-19T19:14:39;11.70;99.90
13835;DHT22;6988;52.614;13.500;2023-03-19T19:19:32;11.70;99.90
13835;DHT22;6988;52.614;13.500;2023-03-19T19:24:25;11.70;99.90
13835;DHT22;6988;52.614;13.500;2023-03-19T19:29:22;11.70;99.90
13835;DHT22;6988;52.614;13.500;2023-03-19T19:34:15;11.70;99.90
13835;DHT22;6988;52.614;13.500;2023-03-19T19:39:08;11.70;99.90
13835;DHT22;6988;52.614;13.500;2023-03-19T19:44:01;11.70;99.90
13835;DHT22;6988;52.614;13.500;2023-03-19T19:48:53;11.50;99.90
13835;DHT22;6988;52.614;13.500;2023-03-19T19:53:45;11.60;99.90
13835;DHT22;6988;52.614;13.500;2023-03-19T19:58:38;11.50;99.90
13835;DHT22;6988;52.614;13.500;2023-03-19T20:03:34;11.40;99.90
13835;DHT22;6988;52.614;13.500;2023-03-19T20:08:27;11.30;99.90
13835;DHT22;6988;52.614;13.500;2023-03-19T20:13:21;11.10;99.90
13835;DHT22;6988;52.614;13.500;2023-03-19T20:18:16;11.20;99.90
13835;DHT22;6988;52.614;13.500;2023-03-19T20:23:11;11.20;99.90
13835;DHT22;6988;52.614;13.500;2023-03-19T20:28:05;11.30;99.90
13835;DHT22;6988;52.614;13.500;2023-03-19T20:32:58;11.30;99.90
13835;DHT22;6988;52.614;13.500;2023-03-19T20:37:51;11.40;99.90
13835;DHT22;6988;52.614;13.500;2023-03-19T20:42:47;11.40;99.90
13835;DHT22;6988;52.614;13.500;2023-03-19T20:47:40;11.30;99.90
13835;DHT22;6988;52.614;13.500;2023-03-19T20:52:32;11.50;99.90
13835;DHT22;6988;52.614;13.500;2023-03-19T20:57:26;11.50;99.90
13835;DHT22;6988;52.614;13.500;2023-03-19T21:02:22;11.50;99.90
13835;DHT22;6988;52.614;13.500;2023-03-19T21:07:22;11.50;99.90
13835;DHT22;6988;52.614;13.500;2023-03-19T21:12:25;11.40;99.90
13835;DHT22;6988;52.614;13.500;2023-03-19T21:17:18;11.40;99.90
13835;DHT22;6988;52.614;13.500;2023-03-19T21:22:14;11.40;99.90
13835;DHT22;6988;52.614;13.500;2023-03-19T21:27:17;11.60;99.90
13835;DHT22;6988;52.614;13.500;2023-03-19T21:32:13;11.50;99.90
13835;DHT22;6988;52.614;13.500;2023-03-19T21:37:07;11.60;99.90
13835;DHT22;6988;52.614;13.500;2023-03-19T21:42:03;11.50;99.90
13835;DHT22;6988;52.614;13.500;2023-03-19T21:46:57;11.50;99.90
13835;DHT22;6988;52.614;13.500;2023-03-19T21:51:52;11.60;99.90
13835;DHT22;6988;52.614;13.500;2023-03-19T21:56:46;11.40;99.90
13835;DHT22;6988;52.614;13.500;2023-03-19T22:01:40;11.40;99.90
13835;DHT22;6988;52.614;13.500;2023-03-19T22:06:32;11.40;99.90
13835;DHT22;6988;52.614;13.500;2023-03-19T22:11:26;11.50;99.90
13835;DHT22;6988;52.614;13.500;2023-03-19T22:16:21;11.50;99.90
13835;DHT22;6988;52.614;13.500;2023-03-19T22:21:16;11.40;99.90
13835;DHT22;6988;52.614;13.500;2023-03-19T22:26:25;11.40;99.90
13835;DHT22;6988;52.614;13.500;2023-03-19T22:31:19;11.40;99.90
13835;DHT22;6988;52.614;13.500;2023-03-19T22:36:12;11.50;99.90
13835;DHT22;6988;52.614;13.500;2023-03-19T22:41:12;11.40;99.90
13835;DHT22;6988;52.614;13.500;2023-03-19T23:04:39;10.90;99.90
13835;DHT22;6988;52.614;13.500;2023-03-19T23:09:32;10.80;99.90
13835;DHT22;6988;52.614;13.500;2023-03-19T23:14:26;10.70;99.90
13835;DHT22;6988;52.614;13.500;2023-03-19T23:19:20;10.50;99.90
13835;DHT22;6988;52.614;13.500;2023-03-19T23:24:15;10.60;99.90
13835;DHT22;6988;52.614;13.500;2023-03-19T23:29:15;10.60;99.90
13835;DHT22;6988;52.614;13.500;2023-03-19T23:34:09;10.50;99.90
13835;DHT22;6988;52.614;13.500;2023-03-19T23:39:01;10.50;99.90
13835;DHT22;6988;52.614;13.500;2023-03-19T23:43:57;10.50;99.90
13835;DHT22;6988;52.614;13.500;2023-03-19T23:48:51;10.50;99.90
13835;DHT22;6988;52.614;13.500;2023-03-19T23:53:43;10.50;99.90
13835;DHT22;6988;52.614;13.500;2023-03-19T23:58:37;10.40;99.90
